sensor_id;sensor_type;location;lat;lon;timestamp;temperature;humidity
7411;DHT22;3747;48.628;9.058;2022-08-19T00:00:38;18.80;99.90
7411;DHT22;3747;48.628;9.058;2022-08-19T00:03:06;18.80;99.90
7411;DHT22;3747;48.628;9.058;2022-08-19T00:05:33;18.80;99.90
7411;DHT22;3747;48.628;9.058;2022-08-19T00:08:00;18.80;99.90
7411;DHT22;3747;48.628;9.058;2022-08-19T00:10:27;18.80;99.90
7411;DHT22;3747;48.628;9.058;2022-08-19T00:12:55;18.80;99.90
7411;DHT22;3747;48.628;9.058;2022-08-19T00:15:22;18.80;99.90
7411;DHT22;3747;48.628;9.058;2022-08-19T00:17:49;18.80;99.90
7411;DHT22;3747;48.628;9.058;2022-08-19T00:20:18;18.80;99.90
7411;DHT22;3747;48.628;9.058;2022-08-19T00:22:45;18.80;99.90
7411;DHT22;3747;48.628;9.058;2022-08-19T00:25:12;18.80;99.90
7411;DHT22;3747;48.628;9.058;2022-08-19T00:27:40;18.80;99.90
7411;DHT22;3747;48.628;9.058;2022-08-19T00:30:09;18.80;99.90
7411;DHT22;3747;48.628;9.058;2022-08-19T00:32:36;18.70;99.90
7411;DHT22;3747;48.628;9.058;2022-08-19T00:35:04;18.70;99.90
7411;DHT22;3747;48.628;9.058;2022-08-19T00:37:31;18.60;99.90
7411;DHT22;3747;48.628;9.058;2022-08-19T00:40:00;18.40;99.90
7411;DHT22;3747;48.628;9.058;2022-08-19T00:42:27;18.20;99.90
7411;DHT22;3747;48.628;9.058;2022-08-19T00:44:54;18.10;99.90
7411;DHT22;3747;48.628;9.058;2022-08-19T00:47:22;18.00;99.90
7411;DHT22;3747;48.628;9.058;2022-08-19T00:49:52;17.90;99.90
7411;DHT22;3747;48.628;9.058;2022-08-19T00:52:21;17.80;99.90
7411;DHT22;3747;48.628;9.058;2022-08-19T00:54:50;17.80;99.90
7411;DHT22;3747;48.628;9.058;2022-08-19T00:57:20;17.70;99.90
7411;DHT22;3747;48.628;9.058;2022-08-19T00:59:51;17.70;99.90
7411;DHT22;3747;48.628;9.058;2022-08-19T01:02:19;17.70;99.90
7411;DHT22;3747;48.628;9.058;2022-08-19T01:04:47;17.60;99.90
7411;DHT22;3747;48.628;9.058;2022-08-19T01:07:13;17.60;99.90
7411;DHT22;3747;48.628;9.058;2022-08-19T01:09:40;17.60;99.90
7411;DHT22;3747;48.628;9.058;2022-08-19T01:12:08;17.60;99.90
7411;DHT22;3747;48.628;9.058;2022-08-19T01:14:36;17.60;99.90
7411;DHT22;3747;48.628;9.058;2022-08-19T01:17:05;17.50;99.90
7411;DHT22;3747;48.628;9.058;2022-08-19T01:19:35;17.50;99.90
7411;DHT22;3747;48.628;9.058;2022-08-19T01:22:08;17.50;99.90
7411;DHT22;3747;48.628;9.058;2022-08-19T01:24:36;17.50;99.90
7411;DHT22;3747;48.628;9.058;2022-08-19T01:27:04;17.40;99.90
7411;DHT22;3747;48.628;9.058;2022-08-19T01:29:31;17.40;99.90
7411;DHT22;3747;48.628;9.058;2022-08-19T01:31:58;17.50;99.90
7411;DHT22;3747;48.628;9.058;2022-08-19T01:34:25;17.50;99.90
7411;DHT22;3747;48.628;9.058;2022-08-19T01:36:52;17.50;99.90
7411;DHT22;3747;48.628;9.058;2022-08-19T01:39:21;17.50;99.90
7411;DHT22;3747;48.628;9.058;2022-08-19T01:41:50;17.60;99.90
7411;DHT22;3747;48.628;9.058;2022-08-19T01:44:20;17.60;99.90
7411;DHT22;3747;48.628;9.058;2022-08-19T01:46:49;17.70;99.90
7411;DHT22;3747;48.628;9.058;2022-08-19T01:49:20;17.60;99.90
7411;DHT22;3747;48.628;9.058;2022-08-19T01:51:49;17.70;99.90
7411;DHT22;3747;48.628;9.058;2022-08-19T01:54:17;17.70;99.90
7411;DHT22;3747;48.628;9.058;2022-08-19T01:56:44;17.70;99.90
7411;DHT22;3747;48.628;9.058;2022-08-19T01:59:17;17.70;99.90
7411;DHT22;3747;48.628;9.058;2022-08-19T02:01:45;17.70;99.90
7411;DHT22;3747;48.628;9.058;2022-08-19T02:04:11;17.70;99.90
7411;DHT22;3747;48.628;9.058;2022-08-19T02:06:39;17.70;99.90
7411;DHT22;3747;48.628;9.058;2022-08-19T02:09:06;17.70;99.90
7411;DHT22;3747;48.628;9.058;2022-08-19T02:11:35;17.60;99.90
7411;DHT22;3747;48.628;9.058;2022-08-19T02:14:06;17.70;99.90
7411;DHT22;3747;48.628;9.058;2022-08-19T02:16:35;17.70;99.90
7411;DHT22;3747;48.628;9.058;2022-08-19T02:19:03;17.70;99.90
7411;DHT22;3747;48.628;9.058;2022-08-19T02:21:30;17.70;99.90
7411;DHT22;3747;48.628;9.058;2022-08-19T02:23:57;17.70;99.90
7411;DHT22;3747;48.628;9.058;2022-08-19T02:26:24;17.70;99.90
7411;DHT22;3747;48.628;9.058;2022-08-19T02:28:52;17.80;99.90
7411;DHT22;3747;48.628;9.058;2022-08-19T02:31:22;17.70;99.90
7411;DHT22;3747;48.628;9.058;2022-08-19T02:33:51;17.70;99.90
7411;DHT22;3747;48.628;9.058;2022-08-19T02:36:18;17.70;99.90
7411;DHT22;3747;48.628;9.058;2022-08-19T02:38:46;17.70;99.90
7411;DHT22;3747;48.628;9.058;2022-08-19T02:41:14;17.70;99.90
7411;DHT22;3747;48.628;9.058;2022-08-19T02:43:42;17.70;99.90
7411;DHT22;3747;48.628;9.058;2022-08-19T02:46:13;17.70;99.90
7411;DHT22;3747;48.628;9.058;2022-08-19T02:48:40;17.70;99.90
7411;DHT22;3747;48.628;9.058;2022-08-19T02:51:09;17.70;99.90
7411;DHT22;3747;48.628;9.058;2022-08-19T02:53:41;17.70;99.90
7411;DHT22;3747;48.628;9.058;2022-08-19T02:56:08;17.70;99.90
7411;DHT22;3747;48.628;9.058;2022-08-19T02:58:35;17.70;99.90
7411;DHT22;3747;48.628;9.058;2022-08-19T03:01:02;17.70;99.90
7411;DHT22;3747;48.628;9.058;2022-08-19T03:03:28;17.60;99.90
7411;DHT22;3747;48.628;9.058;2022-08-19T03:06:04;17.60;99.90
7411;DHT22;3747;48.628;9.058;2022-08-19T03:08:33;17.60;99.90
7411;DHT22;3747;48.628;9.058;2022-08-19T03:10:59;17.70;99.90
7411;DHT22;3747;48.628;9.058;2022-08-19T03:13:26;17.60;99.90
7411;DHT22;3747;48.628;9.058;2022-08-19T03:15:53;17.60;99.90
7411;DHT22;3747;48.628;9.058;2022-08-19T03:18:20;17.70;99.90
7411;DHT22;3747;48.628;9.058;2022-08-19T03:20:49;17.70;99.90
7411;DHT22;3747;48.628;9.058;2022-08-19T03:23:18;17.70;99.90
7411;DHT22;3747;48.628;9.058;2022-08-19T03:25:47;17.70;99.90
7411;DHT22;3747;48.628;9.058;2022-08-19T03:28:15;17.70;99.90
7411;DHT22;3747;48.628;9.058;2022-08-19T03:30:53;17.70;99.90
7411;DHT22;3747;48.628;9.058;2022-08-19T03:33:22;17.60;99.90
7411;DHT22;3747;48.628;9.058;2022-08-19T03:35:59;17.60;99.90
7411;DHT22;3747;48.628;9.058;2022-08-19T03:38:26;17.60;99.90
7411;DHT22;3747;48.628;9.058;2022-08-19T03:40:54;17.60;99.90
7411;DHT22;3747;48.628;9.058;2022-08-19T03:43:21;17.50;99.90
7411;DHT22;3747;48.628;9.058;2022-08-19T03:45:48;17.50;99.90
7411;DHT22;3747;48.628;9.058;2022-08-19T03:48:16;17.50;99.90
7411;DHT22;3747;48.628;9.058;2022-08-19T03:50:43;17.60;99.90
7411;DHT22;3747;48.628;9.058;2022-08-19T03:53:10;17.60;99.90
7411;DHT22;3747;48.628;9.058;2022-08-19T03:55:39;17.60;99.90
7411;DHT22;3747;48.628;9.058;2022-08-19T03:58:07;17.50;99.90
7411;DHT22;3747;48.628;9.058;2022-08-19T04:00:36;17.50;99.90
7411;DHT22;3747;48.628;9.058;2022-08-19T04:03:03;17.50;99.90
7411;DHT22;3747;48.628;9.058;2022-08-19T04:05:29;17.50;99.90
7411;DHT22;3747;48.628;9.058;2022-08-19T04:07:56;17.60;99.90
7411;DHT22;3747;48.628;9.058;2022-08-19T04:10:24;17.60;99.90
7411;DHT22;3747;48.628;9.058;2022-08-19T04:12:51;17.60;99.90
7411;DHT22;3747;48.628;9.058;2022-08-19T04:15:19;17.60;99.90
7411;DHT22;3747;48.628;9.058;2022-08-19T04:17:46;17.60;99.90
7411;DHT22;3747;48.628;9.058;2022-08-19T04:20:13;17.60;99.90
7411;DHT22;3747;48.628;9.058;2022-08-19T04:22:39;17.50;99.90
7411;DHT22;3747;48.628;9.058;2022-08-19T04:25:07;17.50;99.90
7411;DHT22;3747;48.628;9.058;2022-08-19T04:27:33;17.50;99.90
7411;DHT22;3747;48.628;9.058;2022-08-19T04:30:00;17.50;99.90
7411;DHT22;3747;48.628;9.058;2022-08-19T04:32:28;17.50;99.90
7411;DHT22;3747;48.628;9.058;2022-08-19T04:34:57;17.50;99.90
7411;DHT22;3747;48.628;9.058;2022-08-19T04:37:24;17.40;99.90
7411;DHT22;3747;48.628;9.058;2022-08-19T04:39:52;17.50;99.90
7411;DHT22;3747;48.628;9.058;2022-08-19T04:42:36;17.50;99.90
7411;DHT22;3747;48.628;9.058;2022-08-19T04:45:08;17.40;99.90
7411;DHT22;3747;48.628;9.058;2022-08-19T04:47:38;17.50;99.90
7411;DHT22;3747;48.628;9.058;2022-08-19T04:50:06;17.50;99.90
7411;DHT22;3747;48.628;9.058;2022-08-19T04:52:33;17.50;99.90
7411;DHT22;3747;48.628;9.058;2022-08-19T04:55:00;17.50;99.90
7411;DHT22;3747;48.628;9.058;2022-08-19T04:57:26;17.50;99.90
7411;DHT22;3747;48.628;9.058;2022-08-19T04:59:54;17.50;99.90
7411;DHT22;3747;48.628;9.058;2022-08-19T05:02:21;17.50;99.90
7411;DHT22;3747;48.628;9.058;2022-08-19T05:04:56;17.50;99.90
7411;DHT22;3747;48.628;9.058;2022-08-19T05:07:23;17.60;99.90
7411;DHT22;3747;48.628;9.058;2022-08-19T05:09:50;17.50;99.90
7411;DHT22;3747;48.628;9.058;2022-08-19T05:12:17;17.60;99.90
7411;DHT22;3747;48.628;9.058;2022-08-19T05:14:44;17.60;99.90
7411;DHT22;3747;48.628;9.058;2022-08-19T05:17:12;17.60;99.90
7411;DHT22;3747;48.628;9.058;2022-08-19T05:19:39;17.70;99.90
7411;DHT22;3747;48.628;9.058;2022-08-19T05:22:25;17.70;99.90
7411;DHT22;3747;48.628;9.058;2022-08-19T05:25:03;17.70;99.90
7411;DHT22;3747;48.628;9.058;2022-08-19T05:27:30;17.70;99.90
7411;DHT22;3747;48.628;9.058;2022-08-19T05:29:57;17.70;99.90
7411;DHT22;3747;48.628;9.058;2022-08-19T05:32:24;17.70;99.90
7411;DHT22;3747;48.628;9.058;2022-08-19T05:34:51;17.70;99.90
7411;DHT22;3747;48.628;9.058;2022-08-19T05:37:18;17.60;99.90
7411;DHT22;3747;48.628;9.058;2022-08-19T05:39:46;17.60;99.90
7411;DHT22;3747;48.628;9.058;2022-08-19T05:42:14;17.70;99.90
7411;DHT22;3747;48.628;9.058;2022-08-19T05:44:43;17.70;99.90
7411;DHT22;3747;48.628;9.058;2022-08-19T05:47:11;17.70;99.90
7411;DHT22;3747;48.628;9.058;2022-08-19T05:49:38;17.70;99.90
7411;DHT22;3747;48.628;9.058;2022-08-19T05:52:07;17.70;99.90
7411;DHT22;3747;48.628;9.058;2022-08-19T05:54:34;17.80;99.90
7411;DHT22;3747;48.628;9.058;2022-08-19T05:57:03;17.70;99.90
7411;DHT22;3747;48.628;9.058;2022-08-19T05:59:30;17.80;99.90
7411;DHT22;3747;48.628;9.058;2022-08-19T06:01:57;17.80;99.90
7411;DHT22;3747;48.628;9.058;2022-08-19T06:04:25;17.80;99.90
7411;DHT22;3747;48.628;9.058;2022-08-19T06:06:53;17.80;99.90
7411;DHT22;3747;48.628;9.058;2022-08-19T06:09:21;17.80;99.90
7411;DHT22;3747;48.628;9.058;2022-08-19T06:11:50;17.80;99.90
7411;DHT22;3747;48.628;9.058;2022-08-19T06:14:24;17.90;99.90
7411;DHT22;3747;48.628;9.058;2022-08-19T06:16:50;17.80;99.90
7411;DHT22;3747;48.628;9.058;2022-08-19T06:19:19;17.90;99.90
7411;DHT22;3747;48.628;9.058;2022-08-19T06:21:49;17.90;99.90
7411;DHT22;3747;48.628;9.058;2022-08-19T06:24:18;18.00;99.90
7411;DHT22;3747;48.628;9.058;2022-08-19T06:26:47;18.00;99.90
7411;DHT22;3747;48.628;9.058;2022-08-19T06:29:15;18.00;99.90
7411;DHT22;3747;48.628;9.058;2022-08-19T06:31:46;18.00;99.90
7411;DHT22;3747;48.628;9.058;2022-08-19T06:34:15;18.10;99.90
7411;DHT22;3747;48.628;9.058;2022-08-19T06:36:43;18.00;99.90
7411;DHT22;3747;48.628;9.058;2022-08-19T06:39:12;18.10;99.90
7411;DHT22;3747;48.628;9.058;2022-08-19T06:41:42;18.00;99.90
7411;DHT22;3747;48.628;9.058;2022-08-19T06:44:10;18.10;99.90
7411;DHT22;3747;48.628;9.058;2022-08-19T06:46:37;18.10;99.90
7411;DHT22;3747;48.628;9.058;2022-08-19T06:49:06;18.10;99.90
7411;DHT22;3747;48.628;9.058;2022-08-19T06:51:37;18.10;99.90
7411;DHT22;3747;48.628;9.058;2022-08-19T06:54:04;18.10;99.90
7411;DHT22;3747;48.628;9.058;2022-08-19T06:56:31;18.10;99.90
7411;DHT22;3747;48.628;9.058;2022-08-19T06:59:01;18.10;99.90
7411;DHT22;3747;48.628;9.058;2022-08-19T07:01:28;18.10;99.90
7411;DHT22;3747;48.628;9.058;2022-08-19T07:03:54;18.20;99.90
7411;DHT22;3747;48.628;9.058;2022-08-19T07:06:23;18.20;99.90
7411;DHT22;3747;48.628;9.058;2022-08-19T07:08:49;18.20;99.90
7411;DHT22;3747;48.628;9.058;2022-08-19T07:11:18;18.20;99.90
7411;DHT22;3747;48.628;9.058;2022-08-19T07:13:45;18.20;99.90
7411;DHT22;3747;48.628;9.058;2022-08-19T07:16:16;18.30;99.90
7411;DHT22;3747;48.628;9.058;2022-08-19T07:18:44;18.40;99.90
7411;DHT22;3747;48.628;9.058;2022-08-19T07:21:13;18.40;99.90
7411;DHT22;3747;48.628;9.058;2022-08-19T07:23:42;18.40;99.90
7411;DHT22;3747;48.628;9.058;2022-08-19T07:26:12;18.40;99.90
7411;DHT22;3747;48.628;9.058;2022-08-19T07:28:39;18.40;99.90
7411;DHT22;3747;48.628;9.058;2022-08-19T07:31:10;18.50;99.90
7411;DHT22;3747;48.628;9.058;2022-08-19T07:33:37;18.50;99.90
7411;DHT22;3747;48.628;9.058;2022-08-19T07:36:05;18.50;99.90
7411;DHT22;3747;48.628;9.058;2022-08-19T07:38:32;18.60;99.90
7411;DHT22;3747;48.628;9.058;2022-08-19T07:41:00;18.50;99.90
7411;DHT22;3747;48.628;9.058;2022-08-19T07:43:27;18.50;99.90
7411;DHT22;3747;48.628;9.058;2022-08-19T07:45:55;18.50;99.90
7411;DHT22;3747;48.628;9.058;2022-08-19T07:48:22;18.30;99.90
7411;DHT22;3747;48.628;9.058;2022-08-19T07:50:51;18.30;99.90
7411;DHT22;3747;48.628;9.058;2022-08-19T07:53:17;18.30;99.90
7411;DHT22;3747;48.628;9.058;2022-08-19T07:55:45;18.20;99.90
7411;DHT22;3747;48.628;9.058;2022-08-19T07:58:16;18.20;99.90
7411;DHT22;3747;48.628;9.058;2022-08-19T08:00:44;18.00;99.90
7411;DHT22;3747;48.628;9.058;2022-08-19T08:03:11;17.90;99.90
7411;DHT22;3747;48.628;9.058;2022-08-19T08:05:37;17.90;99.90
7411;DHT22;3747;48.628;9.058;2022-08-19T08:08:22;17.90;99.90
7411;DHT22;3747;48.628;9.058;2022-08-19T08:11:02;18.00;99.90
7411;DHT22;3747;48.628;9.058;2022-08-19T08:13:30;18.00;99.90
7411;DHT22;3747;48.628;9.058;2022-08-19T08:15:58;18.10;99.90
7411;DHT22;3747;48.628;9.058;2022-08-19T08:18:25;18.10;99.90
7411;DHT22;3747;48.628;9.058;2022-08-19T08:20:52;18.10;99.90
7411;DHT22;3747;48.628;9.058;2022-08-19T08:23:19;18.10;99.90
7411;DHT22;3747;48.628;9.058;2022-08-19T08:25:48;18.10;99.90
7411;DHT22;3747;48.628;9.058;2022-08-19T08:28:15;18.10;99.90
7411;DHT22;3747;48.628;9.058;2022-08-19T08:30:45;18.10;99.90
7411;DHT22;3747;48.628;9.058;2022-08-19T08:33:13;18.10;99.90
7411;DHT22;3747;48.628;9.058;2022-08-19T08:35:40;18.10;99.90
7411;DHT22;3747;48.628;9.058;2022-08-19T08:38:08;18.20;99.90
7411;DHT22;3747;48.628;9.058;2022-08-19T08:40:43;18.30;99.90
7411;DHT22;3747;48.628;9.058;2022-08-19T08:43:18;18.30;99.90
7411;DHT22;3747;48.628;9.058;2022-08-19T08:45:52;18.40;99.90
7411;DHT22;3747;48.628;9.058;2022-08-19T08:48:23;18.20;99.90
7411;DHT22;3747;48.628;9.058;2022-08-19T08:50:52;18.00;99.90
7411;DHT22;3747;48.628;9.058;2022-08-19T08:53:20;17.90;99.90
7411;DHT22;3747;48.628;9.058;2022-08-19T08:55:48;17.80;99.90
7411;DHT22;3747;48.628;9.058;2022-08-19T08:58:18;17.60;99.90
7411;DHT22;3747;48.628;9.058;2022-08-19T09:00:49;17.50;99.90
7411;DHT22;3747;48.628;9.058;2022-08-19T09:03:18;17.40;99.90
7411;DHT22;3747;48.628;9.058;2022-08-19T09:05:52;17.40;99.90
7411;DHT22;3747;48.628;9.058;2022-08-19T09:08:39;17.40;99.90
7411;DHT22;3747;48.628;9.058;2022-08-19T09:11:10;17.40;99.90
7411;DHT22;3747;48.628;9.058;2022-08-19T09:13:57;17.40;99.90
7411;DHT22;3747;48.628;9.058;2022-08-19T09:16:30;17.50;99.90
7411;DHT22;3747;48.628;9.058;2022-08-19T09:18:58;17.60;99.90
7411;DHT22;3747;48.628;9.058;2022-08-19T09:21:27;17.70;99.90
7411;DHT22;3747;48.628;9.058;2022-08-19T09:23:54;17.70;99.90
7411;DHT22;3747;48.628;9.058;2022-08-19T09:26:22;17.70;99.90
7411;DHT22;3747;48.628;9.058;2022-08-19T09:28:51;17.70;99.90
7411;DHT22;3747;48.628;9.058;2022-08-19T09:31:21;17.70;99.90
7411;DHT22;3747;48.628;9.058;2022-08-19T09:33:50;17.70;99.90
7411;DHT22;3747;48.628;9.058;2022-08-19T09:36:19;17.70;99.90
7411;DHT22;3747;48.628;9.058;2022-08-19T09:38:48;17.70;99.90
7411;DHT22;3747;48.628;9.058;2022-08-19T09:41:17;17.70;99.90
7411;DHT22;3747;48.628;9.058;2022-08-19T09:43:45;17.70;99.90
7411;DHT22;3747;48.628;9.058;2022-08-19T09:46:12;17.70;99.90
7411;DHT22;3747;48.628;9.058;2022-08-19T09:48:41;17.70;99.90
7411;DHT22;3747;48.628;9.058;2022-08-19T09:51:12;17.70;99.90
7411;DHT22;3747;48.628;9.058;2022-08-19T09:53:42;17.70;99.90
7411;DHT22;3747;48.628;9.058;2022-08-19T09:56:10;17.70;99.90
7411;DHT22;3747;48.628;9.058;2022-08-19T09:58:38;17.70;99.90
7411;DHT22;3747;48.628;9.058;2022-08-19T10:01:06;17.70;99.90
7411;DHT22;3747;48.628;9.058;2022-08-19T10:03:35;17.70;99.90
7411;DHT22;3747;48.628;9.058;2022-08-19T10:06:04;17.70;99.90
7411;DHT22;3747;48.628;9.058;2022-08-19T10:08:34;17.80;99.90
7411;DHT22;3747;48.628;9.058;2022-08-19T10:11:03;17.80;99.90
7411;DHT22;3747;48.628;9.058;2022-08-19T10:13:31;17.80;99.90
7411;DHT22;3747;48.628;9.058;2022-08-19T10:16:03;17.80;99.90
7411;DHT22;3747;48.628;9.058;2022-08-19T10:18:31;17.80;99.90
7411;DHT22;3747;48.628;9.058;2022-08-19T10:21:04;17.80;99.90
7411;DHT22;3747;48.628;9.058;2022-08-19T10:23:35;17.80;99.90
7411;DHT22;3747;48.628;9.058;2022-08-19T10:26:03;17.80;99.90
7411;DHT22;3747;48.628;9.058;2022-08-19T10:28:32;17.80;99.90
7411;DHT22;3747;48.628;9.058;2022-08-19T10:31:03;17.70;99.90
7411;DHT22;3747;48.628;9.058;2022-08-19T10:33:32;17.80;99.90
7411;DHT22;3747;48.628;9.058;2022-08-19T10:35:59;17.80;99.90
7411;DHT22;3747;48.628;9.058;2022-08-19T10:38:26;17.80;99.90
7411;DHT22;3747;48.628;9.058;2022-08-19T10:40:55;17.80;99.90
7411;DHT22;3747;48.628;9.058;2022-08-19T10:43:22;17.90;99.90
7411;DHT22;3747;48.628;9.058;2022-08-19T10:45:52;17.90;99.90
7411;DHT22;3747;48.628;9.058;2022-08-19T10:48:21;17.90;99.90
7411;DHT22;3747;48.628;9.058;2022-08-19T10:50:47;18.00;99.90
7411;DHT22;3747;48.628;9.058;2022-08-19T10:53:32;18.00;99.90
7411;DHT22;3747;48.628;9.058;2022-08-19T10:56:00;18.10;99.90
7411;DHT22;3747;48.628;9.058;2022-08-19T10:58:44;18.10;99.90
7411;DHT22;3747;48.628;9.058;2022-08-19T11:01:10;18.20;99.90
7411;DHT22;3747;48.628;9.058;2022-08-19T11:03:37;18.20;99.90
7411;DHT22;3747;48.628;9.058;2022-08-19T11:06:05;18.20;99.90
7411;DHT22;3747;48.628;9.058;2022-08-19T11:08:33;18.30;99.90
7411;DHT22;3747;48.628;9.058;2022-08-19T11:11:05;18.30;99.90
7411;DHT22;3747;48.628;9.058;2022-08-19T11:13:34;18.40;99.90
7411;DHT22;3747;48.628;9.058;2022-08-19T11:16:04;18.40;99.90
7411;DHT22;3747;48.628;9.058;2022-08-19T11:18:32;18.50;99.90
7411;DHT22;3747;48.628;9.058;2022-08-19T11:21:06;18.50;99.90
7411;DHT22;3747;48.628;9.058;2022-08-19T11:23:33;18.60;99.90
7411;DHT22;3747;48.628;9.058;2022-08-19T11:26:00;18.60;99.90
7411;DHT22;3747;48.628;9.058;2022-08-19T11:28:28;18.60;99.90
7411;DHT22;3747;48.628;9.058;2022-08-19T11:30:55;18.60;99.90
7411;DHT22;3747;48.628;9.058;2022-08-19T11:33:22;18.60;99.90
7411;DHT22;3747;48.628;9.058;2022-08-19T11:35:48;18.60;99.90
7411;DHT22;3747;48.628;9.058;2022-08-19T11:38:15;18.70;99.90
7411;DHT22;3747;48.628;9.058;2022-08-19T11:40:43;18.70;99.90
7411;DHT22;3747;48.628;9.058;2022-08-19T11:43:10;18.70;99.90
7411;DHT22;3747;48.628;9.058;2022-08-19T11:45:38;18.80;99.90
7411;DHT22;3747;48.628;9.058;2022-08-19T11:48:05;18.80;99.90
7411;DHT22;3747;48.628;9.058;2022-08-19T11:50:32;18.90;99.90
7411;DHT22;3747;48.628;9.058;2022-08-19T11:52:58;19.00;99.90
7411;DHT22;3747;48.628;9.058;2022-08-19T11:55:25;19.10;99.90
7411;DHT22;3747;48.628;9.058;2022-08-19T11:57:52;19.20;99.90
7411;DHT22;3747;48.628;9.058;2022-08-19T12:00:19;19.40;99.90
7411;DHT22;3747;48.628;9.058;2022-08-19T12:02:47;19.50;99.90
7411;DHT22;3747;48.628;9.058;2022-08-19T12:05:13;19.60;99.90
7411;DHT22;3747;48.628;9.058;2022-08-19T12:07:40;19.60;99.90
7411;DHT22;3747;48.628;9.058;2022-08-19T12:10:09;19.70;99.90
7411;DHT22;3747;48.628;9.058;2022-08-19T12:12:36;19.80;99.90
7411;DHT22;3747;48.628;9.058;2022-08-19T12:15:08;19.80;99.90
7411;DHT22;3747;48.628;9.058;2022-08-19T12:17:36;19.80;99.90
7411;DHT22;3747;48.628;9.058;2022-08-19T12:20:05;19.90;99.90
7411;DHT22;3747;48.628;9.058;2022-08-19T12:22:34;19.90;99.90
7411;DHT22;3747;48.628;9.058;2022-08-19T12:25:01;20.00;99.90
7411;DHT22;3747;48.628;9.058;2022-08-19T12:27:28;20.00;99.90
7411;DHT22;3747;48.628;9.058;2022-08-19T12:29:54;20.10;99.90
7411;DHT22;3747;48.628;9.058;2022-08-19T12:32:21;20.00;99.90
7411;DHT22;3747;48.628;9.058;2022-08-19T12:34:49;20.10;99.90
7411;DHT22;3747;48.628;9.058;2022-08-19T12:37:17;20.20;99.90
7411;DHT22;3747;48.628;9.058;2022-08-19T12:39:44;20.40;99.90
7411;DHT22;3747;48.628;9.058;2022-08-19T12:42:13;20.60;99.90
7411;DHT22;3747;48.628;9.058;2022-08-19T12:44:42;20.90;99.90
7411;DHT22;3747;48.628;9.058;2022-08-19T12:47:11;21.00;99.90
7411;DHT22;3747;48.628;9.058;2022-08-19T12:49:40;21.10;99.90
7411;DHT22;3747;48.628;9.058;2022-08-19T12:52:08;21.20;99.90
7411;DHT22;3747;48.628;9.058;2022-08-19T12:54:37;21.30;99.90
7411;DHT22;3747;48.628;9.058;2022-08-19T12:57:06;21.30;99.90
7411;DHT22;3747;48.628;9.058;2022-08-19T12:59:33;21.30;99.90
7411;DHT22;3747;48.628;9.058;2022-08-19T13:02:01;21.40;99.90
7411;DHT22;3747;48.628;9.058;2022-08-19T13:04:30;21.40;99.90
7411;DHT22;3747;48.628;9.058;2022-08-19T13:06:56;21.30;99.90
7411;DHT22;3747;48.628;9.058;2022-08-19T13:09:23;21.10;99.90
7411;DHT22;3747;48.628;9.058;2022-08-19T13:11:51;21.00;99.90
7411;DHT22;3747;48.628;9.058;2022-08-19T13:14:18;20.90;99.90
7411;DHT22;3747;48.628;9.058;2022-08-19T13:16:45;20.90;99.90
7411;DHT22;3747;48.628;9.058;2022-08-19T13:19:11;20.80;99.90
7411;DHT22;3747;48.628;9.058;2022-08-19T13:21:38;20.70;99.90
7411;DHT22;3747;48.628;9.058;2022-08-19T13:24:05;20.50;99.90
7411;DHT22;3747;48.628;9.058;2022-08-19T13:26:32;20.30;99.90
7411;DHT22;3747;48.628;9.058;2022-08-19T13:29:00;20.00;99.90
7411;DHT22;3747;48.628;9.058;2022-08-19T13:31:45;19.80;99.90
7411;DHT22;3747;48.628;9.058;2022-08-19T13:34:30;19.50;99.90
7411;DHT22;3747;48.628;9.058;2022-08-19T13:36:58;19.60;99.90
7411;DHT22;3747;48.628;9.058;2022-08-19T13:39:28;19.60;99.90
7411;DHT22;3747;48.628;9.058;2022-08-19T13:41:55;19.60;99.90
7411;DHT22;3747;48.628;9.058;2022-08-19T13:44:24;19.60;99.90
7411;DHT22;3747;48.628;9.058;2022-08-19T13:46:51;19.60;99.90
7411;DHT22;3747;48.628;9.058;2022-08-19T13:49:18;19.50;99.90
7411;DHT22;3747;48.628;9.058;2022-08-19T13:51:46;19.40;99.90
7411;DHT22;3747;48.628;9.058;2022-08-19T13:54:12;19.30;99.90
7411;DHT22;3747;48.628;9.058;2022-08-19T13:56:42;19.20;99.90
7411;DHT22;3747;48.628;9.058;2022-08-19T13:59:10;19.10;99.90
7411;DHT22;3747;48.628;9.058;2022-08-19T14:01:38;19.00;99.90
7411;DHT22;3747;48.628;9.058;2022-08-19T14:04:05;19.00;99.90
7411;DHT22;3747;48.628;9.058;2022-08-19T14:06:32;19.00;99.90
7411;DHT22;3747;48.628;9.058;2022-08-19T14:08:59;19.20;99.90
7411;DHT22;3747;48.628;9.058;2022-08-19T14:11:27;19.50;99.90
7411;DHT22;3747;48.628;9.058;2022-08-19T14:13:54;19.80;99.90
7411;DHT22;3747;48.628;9.058;2022-08-19T14:16:20;19.80;99.90
7411;DHT22;3747;48.628;9.058;2022-08-19T14:18:49;19.70;99.90
7411;DHT22;3747;48.628;9.058;2022-08-19T14:21:18;19.50;99.90
7411;DHT22;3747;48.628;9.058;2022-08-19T14:23:46;19.40;99.90
7411;DHT22;3747;48.628;9.058;2022-08-19T14:26:15;19.40;99.90
7411;DHT22;3747;48.628;9.058;2022-08-19T14:28:43;19.40;99.90
7411;DHT22;3747;48.628;9.058;2022-08-19T14:31:10;19.50;99.90
7411;DHT22;3747;48.628;9.058;2022-08-19T14:33:37;19.60;99.90
7411;DHT22;3747;48.628;9.058;2022-08-19T14:36:06;19.70;99.90
7411;DHT22;3747;48.628;9.058;2022-08-19T14:38:33;19.80;99.90
7411;DHT22;3747;48.628;9.058;2022-08-19T14:41:12;20.00;99.90
7411;DHT22;3747;48.628;9.058;2022-08-19T14:43:42;20.00;99.90
7411;DHT22;3747;48.628;9.058;2022-08-19T14:46:12;20.00;99.90
7411;DHT22;3747;48.628;9.058;2022-08-19T14:48:40;20.00;99.90
7411;DHT22;3747;48.628;9.058;2022-08-19T14:51:08;20.00;99.90
7411;DHT22;3747;48.628;9.058;2022-08-19T14:53:35;20.00;99.90
7411;DHT22;3747;48.628;9.058;2022-08-19T14:56:07;20.00;99.90
7411;DHT22;3747;48.628;9.058;2022-08-19T14:58:34;20.10;99.90
7411;DHT22;3747;48.628;9.058;2022-08-19T15:01:01;20.00;99.90
7411;DHT22;3747;48.628;9.058;2022-08-19T15:03:29;20.00;99.90
7411;DHT22;3747;48.628;9.058;2022-08-19T15:05:57;20.20;99.90
7411;DHT22;3747;48.628;9.058;2022-08-19T15:08:27;20.40;99.90
7411;DHT22;3747;48.628;9.058;2022-08-19T15:10:55;20.60;99.90
7411;DHT22;3747;48.628;9.058;2022-08-19T15:13:22;20.80;99.90
7411;DHT22;3747;48.628;9.058;2022-08-19T15:15:50;20.90;99.90
7411;DHT22;3747;48.628;9.058;2022-08-19T15:18:18;21.10;99.90
7411;DHT22;3747;48.628;9.058;2022-08-19T15:20:45;21.10;99.90
7411;DHT22;3747;48.628;9.058;2022-08-19T15:23:13;21.10;99.90
7411;DHT22;3747;48.628;9.058;2022-08-19T15:25:42;21.00;99.90
7411;DHT22;3747;48.628;9.058;2022-08-19T15:28:09;20.90;99.90
7411;DHT22;3747;48.628;9.058;2022-08-19T15:30:38;21.10;99.90
7411;DHT22;3747;48.628;9.058;2022-08-19T15:33:05;21.40;99.90
7411;DHT22;3747;48.628;9.058;2022-08-19T15:35:32;21.80;99.90
7411;DHT22;3747;48.628;9.058;2022-08-19T15:37:58;22.10;99.90
7411;DHT22;3747;48.628;9.058;2022-08-19T15:40:26;22.50;99.90
7411;DHT22;3747;48.628;9.058;2022-08-19T15:42:55;22.60;99.90
7411;DHT22;3747;48.628;9.058;2022-08-19T15:45:23;23.40;99.90
7411;DHT22;3747;48.628;9.058;2022-08-19T15:47:53;25.00;99.90
7411;DHT22;3747;48.628;9.058;2022-08-19T15:50:20;26.00;99.90
7411;DHT22;3747;48.628;9.058;2022-08-19T15:52:49;27.20;99.90
7411;DHT22;3747;48.628;9.058;2022-08-19T15:55:18;28.20;99.90
7411;DHT22;3747;48.628;9.058;2022-08-19T15:57:45;29.00;99.90
7411;DHT22;3747;48.628;9.058;2022-08-19T16:00:31;29.20;99.90
7411;DHT22;3747;48.628;9.058;2022-08-19T16:03:15;28.00;99.90
7411;DHT22;3747;48.628;9.058;2022-08-19T16:06:00;27.60;99.90
7411;DHT22;3747;48.628;9.058;2022-08-19T16:08:44;27.50;99.90
7411;DHT22;3747;48.628;9.058;2022-08-19T16:11:13;26.20;99.90